Time;durP1;ratioP1;P1;durP2;ratioP2;P2;SDS_P1;SDS_P2;PMS_P1;PMS_P2;Temp;Humidity;BMP_temperature;BMP_pressure;BME280_temperature;BME280_humidity;BME280_pressure;Samples;Min_cycle;Max_cycle;Signal;HPM_P1;HPM_P2
2022/04/15 00:01:28;;;;;;;11.98;2.83;;;8.70;99.90;;;;;;4920659;29;20142;-75
2022/04/15 00:03:56;;;;;;;7.82;2.85;;;8.80;99.90;;;;;;4938136;29;20090;-75
2022/04/15 00:06:24;;;;;;;9.55;2.97;;;8.70;99.90;;;;;;4921170;29;20058;-75
2022/04/15 00:08:50;;;;;;;6.25;2.83;;;8.80;99.90;;;;;;4921225;29;20095;-75
2022/04/15 00:11:16;;;;;;;7.15;2.67;;;8.80;99.90;;;;;;4921149;29;20054;-75
2022/04/15 00:13:42;;;;;;;9.48;3.20;;;8.80;99.90;;;;;;4921060;29;20047;-75
2022/04/15 00:16:08;;;;;;;11.70;4.00;;;8.80;99.90;;;;;;4919935;29;20420;-75
2022/04/15 00:18:35;;;;;;;9.68;2.83;;;8.80;99.90;;;;;;4920650;29;20131;-75
2022/04/15 00:21:02;;;;;;;6.32;2.83;;;8.70;99.90;;;;;;4937751;29;20044;-75
2022/04/15 00:23:28;;;;;;;11.55;2.80;;;8.80;99.90;;;;;;4920693;29;20274;-75
2022/04/15 00:25:54;;;;;;;7.55;2.60;;;8.80;99.90;;;;;;4920690;29;20043;-75
2022/04/15 00:28:20;;;;;;;9.70;3.03;;;8.70;99.90;;;;;;4920850;29;20499;-75
2022/04/15 00:30:46;;;;;;;7.93;2.88;;;8.80;99.90;;;;;;4937621;29;20043;-75
2022/04/15 00:33:12;;;;;;;8.95;2.60;;;8.70;99.90;;;;;;4937393;29;20491;-75
2022/04/15 00:35:38;;;;;;;8.48;3.10;;;8.70;99.90;;;;;;4920584;29;20047;-76
2022/04/15 00:38:04;;;;;;;9.00;2.75;;;8.80;99.90;;;;;;4920364;29;20047;-75
2022/04/15 00:40:30;;;;;;;9.93;3.08;;;8.70;99.90;;;;;;4920343;29;20047;-75
2022/04/15 00:42:56;;;;;;;10.00;3.55;;;8.80;99.90;;;;;;4920247;29;20050;-75
2022/04/15 00:45:22;;;;;;;8.93;3.53;;;8.80;99.90;;;;;;4920221;29;20040;-75
2022/04/15 00:47:53;;;;;;;8.63;3.33;;;8.80;99.90;;;;;;4920509;29;20082;-75
2022/04/15 00:50:26;;;;;;;11.43;3.83;;;8.80;99.90;;;;;;4937307;29;20068;-75
2022/04/15 00:52:54;;;;;;;10.32;3.88;;;8.70;99.90;;;;;;4937225;29;20048;-76
2022/04/15 00:55:22;;;;;;;19.23;4.18;;;8.80;99.90;;;;;;4920081;29;20127;-76
2022/04/15 00:57:58;;;;;;;12.32;3.97;;;8.80;99.90;;;;;;4937156;29;20077;-76
2022/04/15 01:00:26;;;;;;;14.40;3.65;;;8.80;99.90;;;;;;4920184;29;20051;-75
2022/04/15 01:02:56;;;;;;;16.80;4.32;;;8.80;99.90;;;;;;4937053;29;20083;-75
2022/04/15 01:05:22;;;;;;;10.68;3.53;;;8.80;99.90;;;;;;4937077;29;20040;-75
2022/04/15 01:07:50;;;;;;;10.80;4.47;;;8.90;99.90;;;;;;4936925;29;20528;-75
2022/04/15 01:10:17;;;;;;;13.13;4.22;;;8.90;99.90;;;;;;4936970;29;20043;-75
2022/04/15 01:12:51;;;;;;;10.52;5.13;;;8.80;99.90;;;;;;4936760;29;20480;-75
2022/04/15 01:15:19;;;;;;;17.17;5.43;;;8.80;99.90;;;;;;4937046;29;20040;-75
2022/04/15 01:17:45;;;;;;;13.27;4.53;;;8.80;99.90;;;;;;4936823;29;20047;-75
2022/04/15 01:20:11;;;;;;;16.40;4.03;;;8.80;99.90;;;;;;4919831;29;20047;-75
2022/04/15 01:22:39;;;;;;;14.00;5.15;;;8.80;99.90;;;;;;4919770;29;20055;-75
2022/04/15 01:25:12;;;;;;;15.27;4.72;;;8.80;99.90;;;;;;4919496;29;20051;-75
2022/04/15 01:27:47;;;;;;;14.55;4.45;;;8.80;99.90;;;;;;4919279;29;20110;-75
2022/04/15 01:30:15;;;;;;;15.23;6.15;;;8.80;99.90;;;;;;4936625;29;20052;-75
2022/04/15 01:32:42;;;;;;;14.48;5.40;;;8.80;99.90;;;;;;4919465;29;20424;-75
2022/04/15 01:35:09;;;;;;;13.50;5.07;;;8.80;99.90;;;;;;4919749;29;20562;-75
2022/04/15 01:37:36;;;;;;;14.63;5.28;;;8.80;99.90;;;;;;4936573;29;20040;-75
2022/04/15 01:40:03;;;;;;;13.57;5.18;;;8.80;99.90;;;;;;4919264;29;20043;-75
2022/04/15 01:42:29;;;;;;;18.25;5.75;;;8.80;99.90;;;;;;4936408;29;20076;-75
2022/04/15 01:44:55;;;;;;;18.83;6.00;;;8.70;99.90;;;;;;4919450;29;20044;-75
2022/04/15 01:47:20;;;;;;;17.75;7.18;;;8.80;99.90;;;;;;4919655;29;20051;-75
2022/04/15 01:49:46;;;;;;;17.95;5.57;;;8.70;99.90;;;;;;4919240;29;20084;-75
2022/04/15 01:52:11;;;;;;;15.75;6.60;;;8.70;99.90;;;;;;4919293;29;20055;-75
2022/04/15 01:54:37;;;;;;;18.25;6.45;;;8.70;99.90;;;;;;4919232;29;20102;-75
2022/04/15 01:57:03;;;;;;;11.93;5.43;;;8.80;99.90;;;;;;4919193;29;20488;-75
2022/04/15 01:59:29;;;;;;;10.23;4.75;;;8.80;99.90;;;;;;4919298;29;20044;-75
2022/04/15 02:01:55;;;;;;;11.98;4.78;;;8.80;99.90;;;;;;4919001;29;20097;-75
2022/04/15 02:04:27;;;;;;;12.32;5.60;;;8.80;99.90;;;;;;4919375;29;20047;-75
2022/04/15 02:06:53;;;;;;;14.23;5.80;;;8.70;99.90;;;;;;4919106;29;20047;-75
2022/04/15 02:09:20;;;;;;;11.70;6.10;;;8.70;99.90;;;;;;4919431;29;20054;-75
2022/04/15 02:11:46;;;;;;;15.73;6.47;;;8.70;99.90;;;;;;4919114;29;20523;-75
2022/04/15 02:14:13;;;;;;;13.73;6.25;;;8.70;99.90;;;;;;4919173;29;20048;-75
2022/04/15 02:16:39;;;;;;;14.52;6.00;;;8.70;99.90;;;;;;4919378;29;20504;-75
2022/04/15 02:19:05;;;;;;;13.95;7.28;;;8.70;99.90;;;;;;4918918;29;20472;-75
2022/04/15 02:21:31;;;;;;;14.68;6.97;;;8.60;99.90;;;;;;4918955;29;20090;-75
2022/04/15 02:23:58;;;;;;;15.13;7.45;;;8.70;99.90;;;;;;4919255;29;20099;-75
2022/04/15 02:26:24;;;;;;;12.07;6.45;;;8.60;99.90;;;;;;4919065;29;20476;-75
2022/04/15 02:28:49;;;;;;;11.07;6.15;;;8.60;99.90;;;;;;4919108;29;20048;-75
2022/04/15 02:31:15;;;;;;;11.00;5.78;;;8.60;99.90;;;;;;4919035;29;20048;-75
2022/04/15 02:33:41;;;;;;;10.45;5.20;;;8.60;99.90;;;;;;4919135;29;20126;-75
2022/04/15 02:36:07;;;;;;;10.52;4.70;;;8.60;99.90;;;;;;4918932;29;20047;-75
2022/04/15 02:38:33;;;;;;;8.55;4.40;;;8.60;99.90;;;;;;4919107;29;20046;-75
2022/04/15 02:40:59;;;;;;;7.03;4.60;;;8.50;99.90;;;;;;4921991;29;20134;-75
2022/04/15 02:43:31;;;;;;;19.40;5.28;;;8.50;99.90;;;;;;4922705;29;20039;-75
2022/04/15 02:46:01;;;;;;;7.15;4.00;;;8.60;99.90;;;;;;4922848;29;20058;-75
2022/04/15 02:48:28;;;;;;;8.05;3.70;;;8.60;99.90;;;;;;4922336;29;20080;-75
2022/04/15 02:50:54;;;;;;;7.05;3.58;;;8.50;99.90;;;;;;4922531;29;20510;-75
2022/04/15 02:53:21;;;;;;;6.75;3.22;;;8.50;99.90;;;;;;4939281;29;20526;-75
2022/04/15 02:55:47;;;;;;;6.45;3.22;;;8.50;99.90;;;;;;4922254;29;20083;-75
2022/04/15 02:58:13;;;;;;;5.15;2.83;;;8.50;99.90;;;;;;4922445;29;20082;-75
2022/04/15 03:00:38;;;;;;;7.10;3.00;;;8.50;99.90;;;;;;4921987;29;20574;-75
2022/04/15 03:03:04;;;;;;;6.00;3.40;;;8.50;99.90;;;;;;4922046;29;20083;-75
2022/04/15 03:05:30;;;;;;;5.38;2.85;;;8.40;99.90;;;;;;4922087;29;20039;-75
2022/04/15 03:07:56;;;;;;;9.18;3.00;;;8.40;99.90;;;;;;4939189;29;20052;-75
2022/04/15 03:10:22;;;;;;;4.95;2.92;;;8.40;99.90;;;;;;4922277;29;20596;-75
2022/04/15 03:12:47;;;;;;;6.25;3.10;;;8.40;99.90;;;;;;4922209;29;20059;-75
2022/04/15 03:15:13;;;;;;;3.92;2.22;;;8.40;99.90;;;;;;4922052;29;20392;-75
2022/04/15 03:17:39;;;;;;;5.45;2.63;;;8.30;99.90;;;;;;4921748;29;20048;-75
2022/04/15 03:20:07;;;;;;;5.13;2.42;;;8.40;99.90;;;;;;4921805;29;20039;-75
2022/04/15 03:22:37;;;;;;;4.68;2.75;;;8.40;99.90;;;;;;4922054;29;20083;-75
2022/04/15 03:25:04;;;;;;;5.90;2.72;;;8.40;99.90;;;;;;4921732;29;20078;-75
2022/04/15 03:27:29;;;;;;;4.68;2.28;;;8.30;99.90;;;;;;4921655;29;20058;-75
2022/04/15 03:29:55;;;;;;;5.00;2.78;;;8.30;99.90;;;;;;4921829;29;20040;-75
2022/04/15 03:32:21;;;;;;;4.28;2.58;;;8.30;99.90;;;;;;4921577;29;20118;-75
2022/04/15 03:34:46;;;;;;;6.32;3.22;;;8.30;99.90;;;;;;4921805;29;20075;-76
2022/04/15 03:37:12;;;;;;;4.90;2.70;;;8.20;99.90;;;;;;4921803;29;20070;-75
2022/04/15 03:39:38;;;;;;;4.63;2.72;;;8.20;99.90;;;;;;4938568;29;20510;-75
2022/04/15 03:42:04;;;;;;;5.00;2.65;;;8.20;99.90;;;;;;4921398;29;20103;-75
2022/04/15 03:44:30;;;;;;;4.13;2.45;;;8.30;99.90;;;;;;4921495;29;20080;-75
2022/04/15 03:46:55;;;;;;;4.28;2.30;;;8.20;99.90;;;;;;4921158;29;20483;-75
2022/04/15 03:49:21;;;;;;;5.00;2.50;;;8.20;99.90;;;;;;4921278;29;20044;-75
2022/04/15 03:51:46;;;;;;;4.97;2.20;;;8.20;99.90;;;;;;4921361;29;20139;-75
2022/04/15 03:54:12;;;;;;;3.13;2.08;;;8.20;99.90;;;;;;4921555;29;20054;-75
2022/04/15 03:56:38;;;;;;;4.15;2.10;;;8.20;99.90;;;;;;4921179;29;20058;-75
2022/04/15 03:59:04;;;;;;;5.65;2.42;;;8.20;99.90;;;;;;4921025;29;20071;-75
2022/04/15 04:01:32;;;;;;;6.57;2.30;;;8.20;99.90;;;;;;4920682;29;20098;-75
2022/04/15 04:03:58;;;;;;;4.13;2.10;;;8.30;99.90;;;;;;4938177;29;20087;-75
2022/04/15 04:06:24;;;;;;;4.75;2.47;;;8.10;99.90;;;;;;4920924;29;20083;-75
2022/04/15 04:08:49;;;;;;;5.53;2.70;;;8.10;99.90;;;;;;4921016;29;20103;-75
2022/04/15 04:11:19;;;;;;;1.95;1.15;;;8.10;99.90;;;;;;4937955;29;20543;-75
2022/04/15 04:13:45;;;;;;;5.07;2.15;;;8.10;99.90;;;;;;4921793;29;20369;-75
2022/04/15 04:16:14;;;;;;;4.45;2.00;;;8.10;99.90;;;;;;4921010;29;20058;-75
2022/04/15 04:18:43;;;;;;;2.50;1.67;;;8.10;99.90;;;;;;4920761;29;20048;-75
2022/04/15 04:21:09;;;;;;;3.20;1.50;;;8.10;99.90;;;;;;4920766;29;20043;-75
2022/04/15 04:23:35;;;;;;;4.00;1.75;;;8.10;99.90;;;;;;4920585;29;20383;-75
2022/04/15 04:26:02;;;;;;;5.28;1.58;;;8.00;99.90;;;;;;4920494;29;20044;-75
2022/04/15 04:28:28;;;;;;;3.03;1.90;;;8.00;99.90;;;;;;4920725;29;20039;-75
2022/04/15 04:30:54;;;;;;;4.13;1.83;;;7.90;99.90;;;;;;4920516;29;20089;-75
2022/04/15 04:33:20;;;;;;;6.65;2.20;;;8.00;99.90;;;;;;4920804;29;20075;-75
2022/04/15 04:35:46;;;;;;;3.25;1.80;;;8.00;99.90;;;;;;4920468;29;20077;-75
2022/04/15 04:38:11;;;;;;;3.17;1.80;;;8.00;99.90;;;;;;4937499;29;20055;-75
2022/04/15 04:40:38;;;;;;;3.83;1.70;;;7.90;99.90;;;;;;4920324;29;20044;-75
2022/04/15 04:43:05;;;;;;;3.20;1.70;;;8.00;99.90;;;;;;4920228;29;20052;-75
2022/04/15 04:45:32;;;;;;;5.72;2.08;;;8.00;99.90;;;;;;4919995;29;20385;-75
2022/04/15 04:48:00;;;;;;;3.75;1.85;;;8.00;99.90;;;;;;4920033;29;20484;-75
2022/04/15 04:50:26;;;;;;;4.93;2.28;;;7.90;99.90;;;;;;4919873;29;20054;-75
2022/04/15 04:52:52;;;;;;;5.50;2.00;;;7.90;99.90;;;;;;4919766;29;20047;-75
2022/04/15 04:55:18;;;;;;;4.03;2.70;;;7.90;99.90;;;;;;4919104;29;20047;-75
2022/04/15 04:57:44;;;;;;;3.83;2.25;;;7.90;99.90;;;;;;4918289;29;20070;-76
2022/04/15 05:00:12;;;;;;;5.13;2.30;;;7.80;99.90;;;;;;4919535;29;20059;-76
2022/04/15 05:02:38;;;;;;;4.90;2.88;;;7.90;99.90;;;;;;4919278;29;20063;-76
2022/04/15 05:05:04;;;;;;;4.45;2.88;;;7.90;99.90;;;;;;4919932;29;20040;-76
2022/04/15 05:07:30;;;;;;;7.28;3.42;;;7.80;99.90;;;;;;4919870;29;20080;-76
2022/04/15 05:09:56;;;;;;;6.82;3.25;;;7.90;99.90;;;;;;4919876;29;20054;-75
2022/04/15 05:12:22;;;;;;;7.38;4.72;;;7.80;99.90;;;;;;4936942;29;20119;-75
2022/04/15 05:14:48;;;;;;;8.32;4.93;;;7.80;99.90;;;;;;4919695;29;20063;-76
2022/04/15 05:17:14;;;;;;;8.30;4.50;;;7.80;99.90;;;;;;4919554;29;20044;-76
2022/04/15 05:19:39;;;;;;;9.70;5.47;;;7.80;99.90;;;;;;4919678;29;20119;-75
2022/04/15 05:22:05;;;;;;;8.95;6.07;;;7.90;99.90;;;;;;4936374;29;20128;-76
2022/04/15 05:24:31;;;;;;;9.30;5.82;;;7.80;99.90;;;;;;4936439;29;20054;-76
2022/04/15 05:26:58;;;;;;;10.20;6.35;;;7.90;99.90;;;;;;4919787;29;20204;-76
2022/04/15 05:29:24;;;;;;;10.60;6.05;;;7.90;99.90;;;;;;4919642;29;20062;-76
2022/04/15 05:31:49;;;;;;;11.85;7.35;;;7.90;99.90;;;;;;4936546;29;20044;-76
2022/04/15 05:34:15;;;;;;;12.80;7.90;;;7.90;99.90;;;;;;4919643;29;20089;-76
2022/04/15 05:36:41;;;;;;;12.18;7.50;;;7.90;99.90;;;;;;4919291;29;20542;-76
2022/04/15 05:39:06;;;;;;;10.85;7.07;;;8.00;99.90;;;;;;4919397;29;20044;-76
2022/04/15 05:41:32;;;;;;;17.20;8.98;;;8.00;99.90;;;;;;4919255;29;20062;-75
2022/04/15 05:43:58;;;;;;;13.73;9.73;;;8.00;99.90;;;;;;4936410;29;20497;-76
2022/04/15 05:46:27;;;;;;;15.90;9.07;;;7.90;99.90;;;;;;4936459;29;20051;-76
2022/04/15 05:48:53;;;;;;;15.23;9.57;;;7.80;99.90;;;;;;4919183;29;20079;-76
2022/04/15 05:51:19;;;;;;;20.25;9.73;;;7.90;99.90;;;;;;4919275;29;20086;-76
2022/04/15 05:53:45;;;;;;;14.13;8.02;;;7.90;99.90;;;;;;4919408;29;20125;-76
2022/04/15 05:56:11;;;;;;;16.48;9.05;;;8.00;99.90;;;;;;4919009;29;20423;-76
2022/04/15 05:58:39;;;;;;;16.98;9.15;;;8.10;99.90;;;;;;4919317;29;20040;-76
2022/04/15 06:01:06;;;;;;;17.95;9.32;;;8.10;99.90;;;;;;4918777;29;20500;-76
2022/04/15 06:03:32;;;;;;;14.55;8.30;;;8.00;99.90;;;;;;4919295;29;20051;-76
2022/04/15 06:06:00;;;;;;;16.67;8.40;;;8.10;99.90;;;;;;4919221;29;20423;-76
2022/04/15 06:08:26;;;;;;;14.38;7.97;;;8.10;99.90;;;;;;4919329;29;20060;-76
2022/04/15 06:10:51;;;;;;;15.75;8.80;;;8.20;99.90;;;;;;4936116;29;20052;-76
2022/04/15 06:13:22;;;;;;;18.25;8.15;;;8.10;99.90;;;;;;4918905;29;20551;-76
2022/04/15 06:15:53;;;;;;;14.05;8.13;;;8.10;99.90;;;;;;4933013;29;20061;-76
2022/04/15 06:18:23;;;;;;;13.98;9.30;;;8.20;99.90;;;;;;4893039;29;20056;-76
2022/04/15 06:20:50;;;;;;;15.15;8.38;;;8.10;99.90;;;;;;4884881;29;20461;-75
2022/04/15 06:23:17;;;;;;;16.17;8.27;;;8.20;99.90;;;;;;4901762;29;20053;-75
2022/04/15 06:25:43;;;;;;;17.95;9.32;;;8.30;99.90;;;;;;4901920;29;20043;-75
2022/04/15 06:28:10;;;;;;;15.82;8.73;;;8.20;99.90;;;;;;4884941;29;20115;-75
2022/04/15 06:30:36;;;;;;;16.77;7.70;;;8.20;99.90;;;;;;4884838;29;20412;-75
2022/04/15 06:33:05;;;;;;;14.38;6.65;;;8.30;99.90;;;;;;4901612;29;20076;-75
2022/04/15 06:35:31;;;;;;;11.63;6.93;;;8.30;99.90;;;;;;4884660;29;20441;-75
2022/04/15 06:37:57;;;;;;;12.27;7.05;;;8.30;99.90;;;;;;4901631;29;20083;-75
2022/04/15 06:40:22;;;;;;;19.38;7.35;;;8.30;99.90;;;;;;4884419;29;20076;-75
2022/04/15 06:42:48;;;;;;;13.27;7.18;;;8.20;99.90;;;;;;4901375;29;20077;-75
2022/04/15 06:45:14;;;;;;;15.57;7.88;;;8.30;99.90;;;;;;4884476;29;20041;-75
2022/04/15 06:47:40;;;;;;;17.77;7.93;;;8.30;99.90;;;;;;4884460;29;20052;-76
2022/04/15 06:50:06;;;;;;;16.00;8.55;;;8.40;99.90;;;;;;4900204;29;20048;-76
2022/04/15 06:52:32;;;;;;;13.00;6.15;;;8.50;99.90;;;;;;4899929;29;20065;-76
2022/04/15 06:54:58;;;;;;;13.13;6.38;;;8.70;99.90;;;;;;4884437;29;20056;-75
2022/04/15 06:57:23;;;;;;;9.98;5.60;;;8.90;99.90;;;;;;4900004;29;20053;-76
2022/04/15 06:59:49;;;;;;;9.80;5.45;;;9.20;99.90;;;;;;4900934;29;20489;-76
2022/04/15 07:02:15;;;;;;;9.18;5.13;;;9.30;99.90;;;;;;4899496;29;20060;-76
2022/04/15 07:04:40;;;;;;;11.60;5.93;;;9.40;99.90;;;;;;4884052;29;20052;-74
2022/04/15 07:07:06;;;;;;;11.23;5.32;;;9.60;99.90;;;;;;4899650;29;20489;-75
2022/04/15 07:09:32;;;;;;;13.63;5.53;;;9.70;99.90;;;;;;4899535;29;20100;-75
2022/04/15 07:11:57;;;;;;;10.95;5.13;;;9.60;99.90;;;;;;4901049;29;20152;-74
2022/04/15 07:14:23;;;;;;;12.23;5.43;;;9.70;99.90;;;;;;4900615;29;20045;-74
2022/04/15 07:16:49;;;;;;;9.45;5.80;;;9.80;99.90;;;;;;4883928;29;20059;-74
2022/04/15 07:19:14;;;;;;;11.32;5.88;;;9.80;99.90;;;;;;4903531;29;20036;-75
2022/04/15 07:21:42;;;;;;;10.68;4.57;;;9.90;99.90;;;;;;4921413;29;20051;-75
2022/04/15 07:24:08;;;;;;;11.82;5.40;;;10.10;99.90;;;;;;4921560;29;20062;-76
2022/04/15 07:26:34;;;;;;;12.98;5.40;;;10.20;99.90;;;;;;4921156;29;20047;-76
2022/04/15 07:29:00;;;;;;;9.63;4.88;;;10.40;99.90;;;;;;4938293;29;20510;-76
2022/04/15 07:31:28;;;;;;;13.88;6.38;;;10.40;99.90;;;;;;4921191;29;20055;-75
2022/04/15 07:33:54;;;;;;;10.68;6.13;;;10.40;99.90;;;;;;4938526;29;20050;-75
2022/04/15 07:39:15;;;;;;;11.07;5.20;;;10.30;99.90;;;;;;4912118;29;20119;-76
2022/04/15 07:41:42;;;;;;;10.30;5.40;;;10.20;99.90;;;;;;4910566;29;20131;-76
2022/04/15 07:44:09;;;;;;;11.52;5.63;;;9.90;99.90;;;;;;4902088;29;20551;-76
2022/04/15 07:46:36;;;;;;;9.32;4.93;;;9.80;99.90;;;;;;4902072;29;20043;-75
2022/04/15 07:49:03;;;;;;;14.25;5.57;;;9.90;99.90;;;;;;4906598;29;20040;-76
2022/04/15 07:51:30;;;;;;;9.07;4.95;;;9.90;99.90;;;;;;4918882;29;20055;-76
2022/04/15 07:53:56;;;;;;;11.68;5.05;;;9.70;99.90;;;;;;4917725;29;20052;-76
2022/04/15 07:56:22;;;;;;;9.35;4.45;;;9.80;99.90;;;;;;4917856;29;20801;-75
2022/04/15 07:58:50;;;;;;;10.32;4.68;;;9.70;99.90;;;;;;4911033;29;20044;-76
2022/04/15 08:01:16;;;;;;;9.98;5.05;;;9.60;99.90;;;;;;4915202;29;20067;-76
2022/04/15 08:03:42;;;;;;;11.35;4.72;;;9.70;99.90;;;;;;4917493;29;20048;-76
2022/04/15 08:06:08;;;;;;;7.97;4.20;;;9.80;99.90;;;;;;4917318;29;20050;-76
2022/04/15 08:08:33;;;;;;;8.45;4.00;;;9.60;99.90;;;;;;4917675;29;20048;-76
2022/04/15 08:10:59;;;;;;;8.85;4.28;;;10.00;99.90;;;;;;4907915;29;20136;-76
2022/04/15 08:13:24;;;;;;;9.68;4.50;;;10.20;99.90;;;;;;4900391;29;20461;-76
2022/04/15 08:15:53;;;;;;;10.77;4.57;;;10.30;99.90;;;;;;4899763;29;20123;-78
2022/04/15 08:18:20;;;;;;;11.55;4.70;;;10.10;99.90;;;;;;4900036;29;20071;-75
2022/04/15 08:20:45;;;;;;;8.80;4.55;;;10.30;99.90;;;;;;4900778;29;20044;-75
2022/04/15 08:23:11;;;;;;;9.50;4.15;;;10.40;99.90;;;;;;4901447;29;20383;-75
2022/04/15 08:25:37;;;;;;;9.05;4.15;;;10.70;99.90;;;;;;4901394;29;20555;-75
2022/04/15 08:28:03;;;;;;;10.25;4.78;;;10.70;99.90;;;;;;4901276;29;20052;-75
2022/04/15 08:30:33;;;;;;;8.20;5.05;;;11.00;99.90;;;;;;4901163;29;20052;-75
2022/04/15 08:32:59;;;;;;;14.98;4.60;;;10.90;99.90;;;;;;4901252;29;20389;-75
2022/04/15 08:35:25;;;;;;;10.80;4.20;;;11.10;99.90;;;;;;4917936;29;20493;-75
2022/04/15 08:37:50;;;;;;;10.23;4.63;;;11.10;99.90;;;;;;4917435;29;20055;-75
2022/04/15 08:40:16;;;;;;;11.57;4.10;;;11.20;99.90;;;;;;4901159;29;20047;-75
2022/04/15 08:42:43;;;;;;;9.55;4.90;;;11.40;99.90;;;;;;4901306;29;20051;-75
2022/04/15 08:45:10;;;;;;;9.15;5.47;;;11.40;99.90;;;;;;4918250;29;20084;-75
2022/04/15 08:47:42;;;;;;;13.07;5.68;;;11.40;99.90;;;;;;4917943;29;20381;-75
2022/04/15 08:50:13;;;;;;;6.75;4.20;;;11.60;99.90;;;;;;4901135;29;20048;-75
2022/04/15 08:52:39;;;;;;;10.60;4.78;;;11.40;99.90;;;;;;4901254;29;20059;-75
2022/04/15 08:55:05;;;;;;;11.65;5.55;;;11.70;99.90;;;;;;4900845;29;20055;-75
2022/04/15 08:57:31;;;;;;;9.82;4.70;;;11.50;99.90;;;;;;4900878;29;20052;-75
2022/04/15 08:59:57;;;;;;;9.32;4.90;;;11.50;99.90;;;;;;4900662;29;20051;-75
2022/04/15 09:02:35;;;;;;;11.30;5.03;;;11.70;99.90;;;;;;4900582;29;20512;-75
2022/04/15 09:05:01;;;;;;;9.98;5.00;;;11.70;99.90;;;;;;4917630;29;20559;-75
2022/04/15 09:07:29;;;;;;;9.75;4.93;;;12.00;99.90;;;;;;4917860;29;20080;-75
2022/04/15 09:09:56;;;;;;;10.13;4.82;;;12.30;99.90;;;;;;4917564;29;20579;-75
2022/04/15 09:12:26;;;;;;;12.68;5.60;;;12.50;99.90;;;;;;4900706;29;20052;-75
2022/04/15 09:15:13;;;;;;;10.65;5.13;;;12.70;99.90;;;;;;4900678;29;20103;-75
2022/04/15 09:17:41;;;;;;;11.45;5.47;;;12.60;99.90;;;;;;4900646;29;20052;-76
2022/04/15 09:20:09;;;;;;;9.35;5.13;;;12.50;99.90;;;;;;4900443;29;20040;-75
2022/04/15 09:22:36;;;;;;;13.25;5.18;;;12.90;99.90;;;;;;4900089;29;20060;-75
2022/04/15 09:25:03;;;;;;;7.53;5.10;;;12.80;99.90;;;;;;4899968;29;20056;-75
2022/04/15 09:27:29;;;;;;;8.15;5.05;;;12.70;99.90;;;;;;4900462;29;20130;-76
2022/04/15 09:29:55;;;;;;;9.77;5.53;;;12.70;99.90;;;;;;4900498;29;20584;-75
2022/04/15 09:32:24;;;;;;;10.95;5.90;;;12.50;99.90;;;;;;4917550;29;20046;-75
2022/04/15 09:35:03;;;;;;;9.38;5.15;;;12.50;99.90;;;;;;4900455;29;20070;-75
2022/04/15 09:37:42;;;;;;;12.32;5.68;;;12.60;99.90;;;;;;4915959;29;20056;-75
2022/04/15 09:40:18;;;;;;;11.23;6.10;;;12.30;99.90;;;;;;4899984;29;20484;-75
2022/04/15 09:42:43;;;;;;;10.93;5.55;;;12.30;99.90;;;;;;4900155;29;20071;-75
2022/04/15 09:45:14;;;;;;;13.40;5.85;;;12.70;99.90;;;;;;4915721;29;20060;-75
2022/04/15 09:47:40;;;;;;;10.35;5.40;;;12.20;99.90;;;;;;4900415;29;20055;-75
2022/04/15 09:50:19;;;;;;;11.40;5.68;;;12.30;99.90;;;;;;4900156;29;20115;-75
2022/04/15 09:52:45;;;;;;;13.20;5.40;;;12.30;99.90;;;;;;4899970;29;20060;-76
2022/04/15 09:55:11;;;;;;;12.45;5.80;;;12.60;99.90;;;;;;4916869;29;20173;-75
2022/04/15 09:57:38;;;;;;;11.32;5.97;;;12.50;99.90;;;;;;4916938;29;20400;-75
2022/04/15 10:00:05;;;;;;;11.68;5.88;;;12.70;99.90;;;;;;4899727;29;20080;-76
2022/04/15 10:02:35;;;;;;;11.68;5.72;;;12.90;99.90;;;;;;4917240;29;20135;-75
2022/04/15 10:05:03;;;;;;;11.60;5.32;;;12.70;99.90;;;;;;4916910;29;20099;-75
2022/04/15 10:07:30;;;;;;;11.75;6.35;;;13.00;99.90;;;;;;4899841;29;20046;-80
2022/04/15 10:09:57;;;;;;;10.52;5.90;;;13.20;99.90;;;;;;4900145;29;20058;-75
2022/04/15 10:12:23;;;;;;;12.43;6.15;;;12.50;99.90;;;;;;4899939;29;20044;-76
2022/04/15 10:14:51;;;;;;;11.13;5.80;;;12.80;99.90;;;;;;4917120;29;20123;-77
2022/04/15 10:17:20;;;;;;;12.75;5.63;;;13.00;99.90;;;;;;4899788;29;20128;-75
2022/04/15 10:19:46;;;;;;;12.32;5.85;;;13.10;99.90;;;;;;4899989;29;20107;-75
2022/04/15 10:22:14;;;;;;;11.50;6.28;;;13.30;99.90;;;;;;4916948;29;20060;-75
2022/04/15 10:24:40;;;;;;;10.93;7.18;;;13.10;99.90;;;;;;4916962;29;20044;-76
2022/04/15 10:27:06;;;;;;;12.82;5.97;;;12.80;99.90;;;;;;4899759;29;20404;-76
2022/04/15 10:29:31;;;;;;;13.52;6.10;;;13.10;99.90;;;;;;4899982;29;20044;-76
2022/04/15 10:32:13;;;;;;;9.57;5.60;;;13.20;99.90;;;;;;4915688;29;20481;-75
2022/04/15 10:34:47;;;;;;;9.63;5.60;;;13.50;99.90;;;;;;4900292;29;20043;-75
2022/04/15 10:37:13;;;;;;;16.33;6.57;;;13.50;99.90;;;;;;4916725;29;20308;-75
2022/04/15 10:39:48;;;;;;;13.35;6.50;;;13.70;99.90;;;;;;4916531;29;20100;-75
2022/04/15 10:42:20;;;;;;;12.60;6.43;;;13.80;99.90;;;;;;4916723;29;20048;-75
2022/04/15 10:44:47;;;;;;;11.98;6.20;;;13.80;99.90;;;;;;4916538;29;20494;-76
2022/04/15 10:47:19;;;;;;;12.10;6.45;;;13.60;99.90;;;;;;4916416;29;20056;-75
2022/04/15 10:50:06;;;;;;;13.18;7.03;;;13.70;99.90;;;;;;4899652;29;20131;-75
2022/04/15 10:52:34;;;;;;;12.57;6.38;;;13.60;99.90;;;;;;4899805;29;20074;-75
2022/04/15 10:55:05;;;;;;;12.43;6.97;;;13.80;99.90;;;;;;4899443;29;20056;-74
2022/04/15 10:57:43;;;;;;;13.60;6.82;;;13.80;99.90;;;;;;4899658;29;20044;-78
2022/04/15 11:03:31;;;;;;;10.15;6.72;;;13.60;99.90;;;;;;4919947;29;20056;-81
2022/04/15 11:06:04;;;;;;;14.45;6.40;;;13.60;99.90;;;;;;4918798;29;20127;-81
2022/04/15 11:08:45;;;;;;;10.15;5.88;;;13.40;99.90;;;;;;4903034;29;20102;-82
2022/04/15 11:12:01;;;;;;;11.65;6.50;;;13.50;99.90;;;;;;4902945;29;20048;-82
2022/04/15 11:14:45;;;;;;;12.20;6.50;;;13.70;99.90;;;;;;4919787;29;20136;-81
2022/04/15 11:17:12;;;;;;;9.77;6.40;;;13.70;99.90;;;;;;4919721;29;20127;-81
2022/04/15 11:19:40;;;;;;;9.65;6.28;;;13.90;99.90;;;;;;4902615;29;20040;-81
2022/04/15 11:22:06;;;;;;;12.20;6.97;;;13.80;99.90;;;;;;4902447;29;20444;-81
2022/04/15 11:24:33;;;;;;;10.57;6.43;;;13.70;99.90;;;;;;4902443;29;20047;-90
2022/04/15 11:27:03;;;;;;;11.05;6.82;;;13.80;99.90;;;;;;4902339;29;20048;-83
2022/04/15 11:29:33;;;;;;;11.00;6.97;;;13.80;99.90;;;;;;4919391;29;20623;-87
2022/04/15 11:32:05;;;;;;;12.57;6.07;;;13.80;99.90;;;;;;4902905;29;20056;-91
2022/04/15 11:34:35;;;;;;;10.80;6.82;;;13.90;99.90;;;;;;4902453;29;20407;-94
2022/04/15 11:37:03;;;;;;;12.88;6.68;;;14.00;99.90;;;;;;4902534;29;20062;-93
2022/04/15 11:39:47;;;;;;;9.98;6.93;;;13.90;99.90;;;;;;4901947;29;20044;-93
2022/04/15 11:42:14;;;;;;;12.27;6.43;;;13.60;99.90;;;;;;4901941;29;20059;-91
2022/04/15 11:44:52;;;;;;;17.08;6.45;;;13.60;99.90;;;;;;4902039;29;20062;-90
2022/04/15 11:47:39;;;;;;;15.10;6.53;;;13.70;99.90;;;;;;4918371;29;20130;-92
2022/04/15 11:50:05;;;;;;;10.18;6.63;;;13.90;99.90;;;;;;4918066;29;20122;-92
2022/04/15 11:52:45;;;;;;;12.02;6.35;;;14.10;99.90;;;;;;4918062;29;20081;-90
2022/04/15 11:55:16;;;;;;;14.07;6.35;;;14.20;99.90;;;;;;4901931;29;20492;-88
2022/04/15 11:57:42;;;;;;;12.00;5.93;;;14.20;99.90;;;;;;4901972;29;20052;-91
2022/04/15 12:00:10;;;;;;;11.65;6.60;;;13.90;99.90;;;;;;4917087;29;20052;-88
2022/04/15 12:02:40;;;;;;;12.88;6.25;;;14.00;99.90;;;;;;4871470;23;20095;-93
2022/04/15 12:05:07;;;;;;;10.00;5.63;;;13.90;99.90;;;;;;4892659;23;20134;-90
2022/04/15 12:07:35;;;;;;;10.30;6.90;;;13.80;99.90;;;;;;4920466;29;20538;-90
2022/04/15 12:10:02;;;;;;;11.70;5.97;;;13.60;99.90;;;;;;4920833;29;20039;-93
2022/04/15 12:12:30;;;;;;;11.30;5.70;;;13.70;99.90;;;;;;4926479;29;20471;-93
2022/04/15 12:15:12;;;;;;;12.55;6.40;;;13.70;99.90;;;;;;4921580;29;20407;-90
2022/04/15 12:17:37;;;;;;;12.45;6.90;;;13.40;99.90;;;;;;4920881;29;20075;-81
2022/04/15 12:20:04;;;;;;;13.85;6.28;;;13.00;99.90;;;;;;4920402;29;20084;-79
2022/04/15 12:22:29;;;;;;;11.82;5.78;;;13.10;99.90;;;;;;4920411;29;20083;-81
2022/04/15 12:25:16;;;;;;;10.95;5.88;;;13.20;99.90;;;;;;4920415;29;20094;-80
2022/04/15 12:27:44;;;;;;;12.85;6.40;;;13.10;99.90;;;;;;4937180;29;20058;-80
2022/04/15 12:30:11;;;;;;;9.75;6.60;;;13.10;99.90;;;;;;4937232;29;20059;-79
2022/04/15 12:32:39;;;;;;;12.55;5.80;;;13.20;99.90;;;;;;4937225;29;20126;-79
2022/04/15 12:35:13;;;;;;;10.43;5.70;;;12.80;99.90;;;;;;4937401;29;20050;-82
2022/04/15 12:37:43;;;;;;;10.43;6.35;;;12.70;99.90;;;;;;4920041;29;20087;-79
2022/04/15 12:40:14;;;;;;;10.63;5.75;;;13.00;99.90;;;;;;4937294;29;20122;-79
2022/04/15 12:42:41;;;;;;;9.88;5.35;;;13.30;99.90;;;;;;4937152;29;20063;-76
2022/04/15 12:45:09;;;;;;;11.63;5.70;;;13.20;99.90;;;;;;4937014;29;20044;-75
2022/04/15 12:47:36;;;;;;;10.38;5.57;;;13.30;99.90;;;;;;4937230;29;20059;-75
2022/04/15 12:50:16;;;;;;;10.00;5.63;;;13.50;99.90;;;;;;4920307;29;20044;-75
2022/04/15 12:52:42;;;;;;;11.68;6.00;;;13.40;99.90;;;;;;4920157;29;20059;-75
2022/04/15 12:55:08;;;;;;;10.70;5.72;;;13.20;99.90;;;;;;4920144;29;20570;-75
2022/04/15 12:57:36;;;;;;;12.10;6.47;;;13.00;99.90;;;;;;4936855;29;20052;-75